KMGE/MGE METAR and TAF weather

Enter ICAO airport designator
Station Type Date Time Source
KMGE METAR 2019/02/21 12:17 UTC NOAA

KMGE 211217Z 00000KT 1 3/4SM BR OVC002 07/07 A3010 RMK AO2A $


Station Type Date Time Source
KMGE Decoded METAR 2019/02/21 12:17 UTC NOAA

Marietta / Dobbins Air Force Base, GA, United States (KMGE) 33-55N 084-31W 326M
Feb 21, 2019 - 07:17 AM EST / 2019.02.21 1217 UTC
Wind: Calm:0
Visibility: 1 3/4 mile(s):0
Sky conditions: overcast
Weather: mist
Temperature: 44 F (7 C)
Dew Point: 44 F (7 C)
Relative Humidity: 100%
Pressure (altimeter): 30.1 in. Hg (1019 hPa)
ob: KMGE 211217Z 00000KT 1 3/4SM BR OVC002 07/07 A3010 RMK AO2A
cycle: 12

Station Type Date Time Source
KMGE TAF 2019/02/21 07:06 UTC NOAA

TAF
AMD KMGE 210700Z 2107/2212 11009KT 8000 -DZ BR OVC005 520203 QNH3001INS
TEMPO 2107/2112 3200 TSRA OVC002CB
BECMG 2111/2112 VRB06KT 4800 -RA BR OVC002 QNH3000INS
BECMG 2115/2116 01006KT 9999 NSW OVC008 QNH3011INS
BECMG 2204/2205 06006KT 4800 BR OVC002 QNH3015INS TX12/2123Z TN06/2107Z


Example: see airport list